Time;durP1;ratioP1;P1;durP2;ratioP2;P2;SDS_P1;SDS_P2;PMS_P1;PMS_P2;Temp;Humidity;BMP_temperature;BMP_pressure;BME280_temperature;BME280_humidity;BME280_pressure;Samples;Min_cycle;Max_cycle;Signal;HPM_P1;HPM_P2
2024/01/17 00:01:59;;;;;;;5.57;3.40;;;14.80;51.40;15.50;99449.00;;;;5067461;28;20174;-45
2024/01/17 00:04:25;;;;;;;4.07;3.60;;;14.70;51.20;15.50;99470.00;;;;5074986;28;20185;-49
2024/01/17 00:06:51;;;;;;;3.90;3.17;;;14.70;51.30;15.50;99458.00;;;;5076121;28;20194;-46
2024/01/17 00:09:18;;;;;;;3.90;3.30;;;14.70;51.20;15.50;99460.00;;;;5069487;28;20185;-46
2024/01/17 00:11:44;;;;;;;4.07;3.00;;;14.70;51.10;15.50;99454.00;;;;5069053;28;20708;-46
2024/01/17 00:14:10;;;;;;;3.40;3.10;;;14.70;51.10;15.50;99448.00;;;;5069029;28;20208;-46
2024/01/17 00:16:36;;;;;;;3.40;3.10;;;14.70;51.20;15.50;99451.00;;;;5068685;28;20208;-45
2024/01/17 00:19:02;;;;;;;3.57;3.20;;;14.60;50.90;15.50;99440.00;;;;5067166;28;20697;-46
2024/01/17 00:21:27;;;;;;;3.63;3.33;;;14.60;51.50;15.40;99433.00;;;;5054709;28;20579;-46
2024/01/17 00:23:54;;;;;;;3.33;3.03;;;14.60;51.20;15.40;99434.00;;;;5069629;28;20166;-46
2024/01/17 00:26:19;;;;;;;3.43;3.13;;;14.60;51.20;15.40;99441.00;;;;5068948;28;20212;-45
2024/01/17 00:28:45;;;;;;;3.67;3.27;;;14.50;51.40;15.40;99428.00;;;;5069149;28;20177;-44
2024/01/17 00:31:11;;;;;;;3.07;2.73;;;14.50;51.00;15.40;99405.00;;;;5068258;28;20181;-45
2024/01/17 00:33:36;;;;;;;3.43;3.13;;;14.50;51.20;15.40;99424.00;;;;5047030;28;20692;-45
2024/01/17 00:36:03;;;;;;;3.47;3.07;;;14.50;51.30;15.40;99417.00;;;;5068365;28;20202;-45
2024/01/17 00:38:29;;;;;;;3.53;3.13;;;14.50;51.20;15.30;99408.00;;;;5073188;28;20170;-45
2024/01/17 00:40:54;;;;;;;3.77;3.00;;;14.50;51.20;15.30;99406.00;;;;5046702;28;20170;-45
2024/01/17 00:43:20;;;;;;;4.20;3.20;;;14.50;51.00;15.30;99393.00;;;;5066398;28;20178;-45
2024/01/17 00:45:46;;;;;;;3.57;3.20;;;14.50;51.00;15.30;99380.00;;;;5052809;28;20212;-47
2024/01/17 00:48:13;;;;;;;3.57;3.27;;;14.40;51.00;15.30;99376.00;;;;5064434;28;20170;-45
2024/01/17 00:50:39;;;;;;;3.20;2.90;;;14.40;50.80;15.30;99379.00;;;;5068379;28;20169;-45
2024/01/17 00:53:05;;;;;;;4.30;3.30;;;14.40;50.90;15.20;99365.00;;;;5083912;28;20324;-47
2024/01/17 00:55:32;;;;;;;4.57;3.03;;;14.40;50.80;15.20;99364.00;;;;5076225;28;20292;-45
2024/01/17 00:57:57;;;;;;;4.23;3.17;;;14.30;50.80;15.20;99378.00;;;;5068646;28;20191;-45
2024/01/17 01:00:23;;;;;;;4.67;3.20;;;14.30;50.90;15.20;99371.00;;;;5038228;28;20173;-48
2024/01/17 01:02:51;;;;;;;3.40;3.10;;;14.30;51.00;15.20;99359.00;;;;5067948;28;20205;-45
2024/01/17 01:05:17;;;;;;;3.60;3.17;;;14.30;50.80;15.10;99353.00;;;;5072172;28;20211;-45
2024/01/17 01:07:47;;;;;;;3.30;3.00;;;14.30;50.90;15.10;99347.00;;;;5071763;28;20665;-46
2024/01/17 01:10:13;;;;;;;4.00;3.60;;;14.20;50.70;15.10;99342.00;;;;5066389;28;20674;-46
2024/01/17 01:12:39;;;;;;;3.70;3.20;;;14.20;50.80;14.90;99345.00;;;;5045353;28;20185;-46
2024/01/17 01:15:05;;;;;;;3.30;3.00;;;14.20;50.90;15.10;99330.00;;;;5044318;28;20217;-45
2024/01/17 01:17:31;;;;;;;3.40;3.10;;;14.20;50.70;15.10;99324.00;;;;5064584;28;20165;-46
2024/01/17 01:19:57;;;;;;;3.30;2.93;;;14.10;50.50;15.00;99320.00;;;;5069474;28;20180;-45
2024/01/17 01:22:23;;;;;;;3.47;3.17;;;14.20;50.60;14.90;99317.00;;;;5065975;28;20681;-45
2024/01/17 01:24:48;;;;;;;3.53;3.20;;;14.20;50.50;15.00;99310.00;;;;5068217;28;20188;-45
2024/01/17 01:27:14;;;;;;;3.97;3.17;;;14.10;50.40;15.00;99313.00;;;;5064963;28;20189;-44
2024/01/17 01:29:40;;;;;;;3.33;3.03;;;14.10;50.50;15.00;99325.00;;;;5066425;28;20189;-46
2024/01/17 01:32:07;;;;;;;4.33;3.33;;;14.10;50.60;14.90;99307.00;;;;5066353;28;20538;-46
2024/01/17 01:34:33;;;;;;;3.53;3.23;;;14.00;50.40;14.90;99318.00;;;;5064631;28;20185;-45
2024/01/17 01:37:00;;;;;;;4.60;3.17;;;14.00;50.50;14.90;99295.00;;;;5066543;28;20837;-46
2024/01/17 01:39:26;;;;;;;3.43;3.00;;;14.00;50.40;14.90;99304.00;;;;5066228;28;20204;-46
2024/01/17 01:41:52;;;;;;;3.57;3.27;;;14.00;50.60;14.90;99297.00;;;;5066055;28;20205;-46
2024/01/17 01:44:17;;;;;;;3.60;3.30;;;13.90;50.50;14.80;99300.00;;;;5063990;28;20252;-46
2024/01/17 01:46:45;;;;;;;3.70;3.27;;;13.90;50.40;14.80;99288.00;;;;5065893;28;20246;-45
2024/01/17 01:49:12;;;;;;;4.87;3.80;;;13.90;50.70;14.70;99288.00;;;;5044151;28;20272;-45
2024/01/17 01:51:39;;;;;;;5.27;3.90;;;13.70;50.10;14.70;99263.00;;;;5065918;28;20177;-47
2024/01/17 01:54:05;;;;;;;4.47;3.87;;;13.60;49.90;14.60;99280.00;;;;5044021;28;20763;-46
2024/01/17 01:56:32;;;;;;;4.90;4.40;;;13.60;49.50;14.60;99285.00;;;;5044024;28;20227;-45
2024/01/17 01:58:58;;;;;;;4.50;4.10;;;13.50;49.30;14.40;99286.00;;;;5044271;28;20318;-45
2024/01/17 02:01:25;;;;;;;6.20;4.40;;;13.50;48.20;14.50;99272.00;;;;5038522;28;20169;-46
2024/01/17 02:03:50;;;;;;;5.20;4.50;;;13.30;47.50;14.40;99274.00;;;;5047148;28;20238;-45
2024/01/17 02:06:17;;;;;;;6.73;4.40;;;13.30;46.80;14.40;99268.00;;;;5045729;28;20666;-46
2024/01/17 02:08:43;;;;;;;6.03;4.80;;;13.20;46.40;14.30;99253.00;;;;5044192;28;20178;-45
2024/01/17 02:11:09;;;;;;;5.93;4.90;;;13.20;45.80;14.30;99260.00;;;;5065501;28;20230;-46
2024/01/17 02:13:34;;;;;;;6.10;4.83;;;13.10;45.40;14.20;99264.00;;;;5044313;28;20649;-46
2024/01/17 02:16:00;;;;;;;5.30;4.80;;;13.00;44.90;14.10;99252.00;;;;5052265;28;20211;-45
2024/01/17 02:18:26;;;;;;;5.13;4.50;;;12.90;44.40;14.10;99255.00;;;;5080271;28;20181;-44
2024/01/17 02:20:52;;;;;;;5.07;4.33;;;13.00;44.80;14.10;99247.00;;;;5045984;28;20300;-46
2024/01/17 02:23:24;;;;;;;5.00;4.33;;;13.00;45.40;14.10;99243.00;;;;5070877;28;20229;-46
2024/01/17 02:25:55;;;;;;;5.90;4.50;;;13.00;45.70;14.00;99250.00;;;;5048490;28;20278;-45
2024/01/17 02:28:21;;;;;;;5.80;4.50;;;13.00;45.90;14.00;99235.00;;;;5070748;28;20188;-45
2024/01/17 02:30:47;;;;;;;4.50;4.10;;;13.00;46.00;14.00;99224.00;;;;5048539;28;20179;-47
2024/01/17 02:33:33;;;;;;;5.30;4.20;;;13.00;46.20;14.00;99228.00;;;;5070462;28;20209;-45
2024/01/17 02:35:58;;;;;;;4.87;3.90;;;13.00;46.60;13.90;99220.00;;;;5054599;28;20232;-48
2024/01/17 02:38:24;;;;;;;5.33;4.20;;;13.00;46.50;13.90;99219.00;;;;5070305;28;20186;-52
2024/01/17 02:40:50;;;;;;;4.37;3.80;;;13.00;46.70;13.90;99208.00;;;;5075989;28;20165;-45
2024/01/17 02:43:16;;;;;;;4.40;4.00;;;13.00;46.60;13.90;99202.00;;;;5089453;28;20360;-46
2024/01/17 02:45:41;;;;;;;4.73;4.07;;;13.00;46.80;13.90;99209.00;;;;5075012;28;20201;-46
2024/01/17 02:48:07;;;;;;;4.97;3.80;;;12.90;46.90;13.90;99202.00;;;;5067965;28;20190;-45
2024/01/17 02:50:33;;;;;;;4.10;3.70;;;12.90;47.00;13.70;99193.00;;;;5070529;28;20181;-45
2024/01/17 02:52:58;;;;;;;4.20;3.80;;;12.90;47.10;13.80;99194.00;;;;5069898;28;20249;-45
2024/01/17 02:55:24;;;;;;;4.10;3.70;;;12.90;47.10;13.80;99185.00;;;;5052788;28;20205;-46
2024/01/17 02:57:51;;;;;;;4.63;3.70;;;12.80;47.20;13.80;99184.00;;;;5075841;28;20177;-45
2024/01/17 03:00:17;;;;;;;4.57;4.17;;;12.90;47.30;13.70;99177.00;;;;5068869;28;20192;-46
2024/01/17 03:02:43;;;;;;;3.97;3.60;;;12.80;47.20;13.70;99174.00;;;;5069163;28;20204;-47
2024/01/17 03:05:09;;;;;;;3.93;3.53;;;12.80;47.40;13.50;99160.00;;;;5068844;28;20201;-45
2024/01/17 03:07:34;;;;;;;4.37;3.47;;;12.80;47.50;13.70;99173.00;;;;5046827;28;20184;-45
2024/01/17 03:10:00;;;;;;;3.93;3.63;;;12.70;47.50;13.70;99160.00;;;;5068858;28;20193;-45
2024/01/17 03:12:26;;;;;;;3.90;3.57;;;12.70;47.50;13.60;99154.00;;;;5068827;28;20216;-46
2024/01/17 03:14:51;;;;;;;4.13;3.40;;;12.70;47.60;13.60;99157.00;;;;5068964;28;20631;-45
2024/01/17 03:17:17;;;;;;;4.27;3.63;;;12.70;47.70;13.60;99154.00;;;;5066534;28;20186;-44
2024/01/17 03:19:44;;;;;;;4.33;3.90;;;12.70;47.80;13.60;99157.00;;;;5069014;28;20306;-45
2024/01/17 03:22:09;;;;;;;3.87;3.23;;;12.70;47.80;13.60;99157.00;;;;5068473;28;20177;-45
2024/01/17 03:24:38;;;;;;;4.20;3.43;;;12.60;47.80;13.60;99157.00;;;;5049067;28;20768;-46
2024/01/17 03:27:04;;;;;;;3.73;3.10;;;12.60;47.90;13.20;99144.00;;;;5068952;28;20200;-46
2024/01/17 03:29:30;;;;;;;4.47;3.63;;;12.60;48.00;13.50;99149.00;;;;5068825;28;20170;-46
2024/01/17 03:31:56;;;;;;;4.43;3.90;;;12.60;48.10;13.50;99140.00;;;;5068405;28;20949;-45
2024/01/17 03:34:21;;;;;;;3.90;3.50;;;12.60;48.10;13.50;99142.00;;;;5067508;28;20178;-45
2024/01/17 03:36:47;;;;;;;3.90;3.60;;;12.60;48.10;13.50;99114.00;;;;5068444;28;20716;-45
2024/01/17 03:39:13;;;;;;;4.47;3.57;;;12.60;48.20;13.50;99112.00;;;;5068309;28;20178;-44
2024/01/17 03:41:39;;;;;;;4.00;3.60;;;12.50;48.20;13.40;99111.00;;;;5068321;28;20265;-45
2024/01/17 03:44:04;;;;;;;4.10;3.40;;;12.50;48.30;13.40;99103.00;;;;5065978;28;20197;-45
2024/01/17 03:46:30;;;;;;;5.43;3.63;;;12.50;48.30;13.40;99087.00;;;;5068082;28;20235;-45
2024/01/17 03:48:56;;;;;;;3.90;3.50;;;12.50;48.40;13.40;99084.00;;;;5066020;28;20184;-46
2024/01/17 03:51:22;;;;;;;4.00;3.60;;;12.50;48.40;13.40;99076.00;;;;5067811;28;20197;-45
2024/01/17 03:53:47;;;;;;;4.33;3.33;;;12.40;48.30;13.40;99066.00;;;;5068181;28;20182;-45
2024/01/17 03:56:14;;;;;;;4.37;3.60;;;12.40;48.30;13.30;99062.00;;;;5067953;28;20863;-44
2024/01/17 03:58:41;;;;;;;4.07;3.67;;;12.40;48.40;13.30;99064.00;;;;5045912;28;20177;-49
2024/01/17 04:01:12;;;;;;;3.73;3.43;;;12.40;48.60;13.30;99052.00;;;;5068636;28;20189;-45
2024/01/17 04:03:39;;;;;;;3.93;3.57;;;12.40;48.50;13.30;99038.00;;;;5069419;28;20197;-46
2024/01/17 04:06:05;;;;;;;4.07;3.43;;;12.40;48.50;13.30;99033.00;;;;5069621;28;20228;-45
2024/01/17 04:08:31;;;;;;;4.10;3.50;;;12.40;48.60;13.30;99033.00;;;;5069795;28;20174;-45
2024/01/17 04:10:57;;;;;;;4.00;3.57;;;12.40;48.60;13.20;99021.00;;;;5069134;28;20239;-46
2024/01/17 04:13:23;;;;;;;4.33;3.93;;;12.40;48.50;13.20;99014.00;;;;5069141;28;20676;-45
2024/01/17 04:15:48;;;;;;;4.00;3.60;;;12.30;48.70;13.20;99004.00;;;;5068931;28;20254;-46
2024/01/17 04:18:14;;;;;;;4.03;3.63;;;12.30;48.70;13.20;99000.00;;;;5066522;28;20217;-46
2024/01/17 04:20:40;;;;;;;4.10;3.70;;;12.30;48.70;13.20;98980.00;;;;5068838;28;20174;-44
2024/01/17 04:23:06;;;;;;;4.03;3.63;;;12.30;48.70;13.20;98996.00;;;;5068827;28;20216;-45
2024/01/17 04:25:32;;;;;;;3.83;3.50;;;12.30;48.70;13.20;98996.00;;;;5069128;28;20201;-45
2024/01/17 04:27:57;;;;;;;4.03;3.60;;;12.30;48.70;13.20;98988.00;;;;5068930;28;20231;-45
2024/01/17 04:30:24;;;;;;;4.63;3.70;;;12.30;49.70;13.20;98981.00;;;;5038762;28;20173;-48
2024/01/17 04:32:49;;;;;;;5.40;3.67;;;12.30;49.40;13.20;98970.00;;;;5070033;28;20173;-48
2024/01/17 04:35:20;;;;;;;4.37;3.43;;;12.40;49.80;13.20;98950.00;;;;5074657;28;20224;-52
2024/01/17 04:37:46;;;;;;;5.27;3.23;;;12.40;49.60;13.20;98951.00;;;;5071108;28;20638;-55
2024/01/17 04:40:12;;;;;;;6.97;3.53;;;12.40;49.80;13.20;98941.00;;;;5069842;28;20256;-45
2024/01/17 04:42:38;;;;;;;6.73;3.60;;;12.30;50.10;13.20;98941.00;;;;5070955;28;20265;-47
2024/01/17 04:45:04;;;;;;;5.13;3.20;;;12.30;50.40;13.10;98928.00;;;;5066634;28;20193;-45
2024/01/17 04:47:31;;;;;;;4.50;3.50;;;12.30;50.40;13.10;98932.00;;;;5072146;28;20609;-47
2024/01/17 04:49:56;;;;;;;3.70;3.40;;;12.30;50.40;13.10;98934.00;;;;5073938;28;20182;-46
2024/01/17 04:52:23;;;;;;;4.63;3.33;;;12.20;50.20;13.10;98927.00;;;;5038666;28;20558;-46
2024/01/17 04:54:51;;;;;;;5.50;3.40;;;12.20;50.10;13.10;98929.00;;;;5068236;28;20653;-45
2024/01/17 04:57:17;;;;;;;4.70;3.40;;;12.20;50.00;13.10;98914.00;;;;5042473;28;20205;-45
2024/01/17 04:59:42;;;;;;;5.77;4.00;;;12.20;50.00;13.10;98903.00;;;;5068305;28;20178;-44
2024/01/17 05:02:09;;;;;;;4.07;3.67;;;12.10;49.70;13.00;98891.00;;;;5067628;28;20181;-44
2024/01/17 05:04:34;;;;;;;4.00;3.60;;;12.10;49.70;13.00;98881.00;;;;5068327;28;20177;-44
2024/01/17 05:07:00;;;;;;;4.53;3.43;;;12.10;49.60;13.00;98856.00;;;;5067941;28;20194;-44
2024/01/17 05:09:26;;;;;;;4.13;3.73;;;12.10;49.50;13.00;98877.00;;;;5048129;28;20170;-44
2024/01/17 05:11:52;;;;;;;4.27;3.43;;;12.10;49.50;13.00;98875.00;;;;5067804;28;20641;-45
2024/01/17 05:14:17;;;;;;;7.13;3.73;;;12.10;49.60;13.00;98875.00;;;;5068184;28;20224;-44
2024/01/17 05:16:43;;;;;;;4.20;3.40;;;12.10;49.70;13.00;98860.00;;;;5068934;28;20206;-44
2024/01/17 05:19:09;;;;;;;5.13;3.73;;;12.10;49.80;13.00;98858.00;;;;5064754;28;20184;-44
2024/01/17 05:21:35;;;;;;;4.37;3.20;;;12.10;50.00;12.90;98852.00;;;;5067704;28;20174;-44
2024/01/17 05:24:00;;;;;;;4.07;3.30;;;12.20;50.10;13.00;98846.00;;;;5067716;28;20182;-44
2024/01/17 05:26:26;;;;;;;3.67;3.37;;;12.20;50.20;13.00;98842.00;;;;5067489;28;20252;-45
2024/01/17 05:28:52;;;;;;;4.47;3.40;;;12.30;50.10;13.00;98840.00;;;;5045579;28;20209;-44
2024/01/17 05:31:17;;;;;;;6.00;3.40;;;12.40;50.10;13.10;98835.00;;;;5067414;28;20190;-44
2024/01/17 05:33:44;;;;;;;3.67;3.23;;;12.50;50.20;13.10;98835.00;;;;5045746;28;20177;-45
2024/01/17 05:36:10;;;;;;;7.70;3.13;;;12.50;50.10;13.20;98830.00;;;;5067600;28;20226;-44
2024/01/17 05:38:35;;;;;;;7.93;3.20;;;12.60;50.10;13.20;98825.00;;;;5068788;28;20242;-44
2024/01/17 05:41:01;;;;;;;5.33;3.17;;;12.60;50.00;13.30;98811.00;;;;5067421;28;20185;-45
2024/01/17 05:43:27;;;;;;;8.97;3.23;;;12.70;50.00;13.30;98810.00;;;;5066680;28;20231;-44
2024/01/17 05:45:57;;;;;;;6.53;3.03;;;12.80;50.10;13.40;98804.00;;;;5067777;28;20267;-45
2024/01/17 05:48:24;;;;;;;8.17;3.13;;;12.90;50.00;13.40;98801.00;;;;5069070;28;21677;-44
2024/01/17 05:50:49;;;;;;;4.03;3.20;;;13.00;49.90;13.60;98794.00;;;;5047360;28;20182;-44
2024/01/17 05:53:16;;;;;;;3.03;2.73;;;13.20;49.90;13.70;98792.00;;;;5070763;28;20208;-45
2024/01/17 05:55:42;;;;;;;4.73;2.80;;;13.30;49.80;13.80;98785.00;;;;5063885;28;20296;-45
2024/01/17 05:58:09;;;;;;;4.90;2.70;;;13.40;49.70;13.90;98786.00;;;;5067000;28;20174;-45
2024/01/17 06:00:35;;;;;;;3.50;2.87;;;13.50;49.60;14.00;98774.00;;;;5066724;28;20166;-45
2024/01/17 06:03:00;;;;;;;6.17;2.80;;;13.60;49.80;14.00;98770.00;;;;5044744;28;20218;-45
2024/01/17 06:05:26;;;;;;;6.57;2.90;;;13.70;49.90;14.10;98784.00;;;;5046777;28;20579;-45
2024/01/17 06:07:52;;;;;;;3.93;2.90;;;13.80;50.10;14.20;98780.00;;;;5067140;28;20330;-44
2024/01/17 06:10:17;;;;;;;4.07;2.60;;;13.90;50.20;14.30;98783.00;;;;5068633;28;20185;-44
2024/01/17 06:12:43;;;;;;;4.80;2.60;;;14.00;50.40;14.40;98778.00;;;;5068780;28;20170;-44
2024/01/17 06:15:10;;;;;;;3.47;2.50;;;14.00;50.30;14.40;98765.00;;;;5043907;28;20205;-45
2024/01/17 06:17:36;;;;;;;5.77;2.90;;;14.10;50.30;14.50;98770.00;;;;5064721;28;20777;-45
2024/01/17 06:20:02;;;;;;;2.93;2.43;;;14.20;50.40;14.60;98759.00;;;;5067004;28;20835;-44
2024/01/17 06:22:27;;;;;;;3.67;2.70;;;14.30;50.30;14.70;98755.00;;;;5067184;28;20169;-44
2024/01/17 06:24:53;;;;;;;3.50;2.60;;;14.40;50.30;14.80;98756.00;;;;5066834;28;20173;-46
2024/01/17 06:27:19;;;;;;;3.73;2.60;;;14.40;50.20;14.80;98749.00;;;;5071547;28;20665;-46
2024/01/17 06:29:45;;;;;;;3.40;2.90;;;14.50;50.20;14.90;98750.00;;;;5069587;28;20181;-45
2024/01/17 06:32:11;;;;;;;4.07;2.63;;;14.60;50.10;15.00;98751.00;;;;5067691;28;20261;-45
2024/01/17 06:34:37;;;;;;;3.00;2.53;;;14.60;50.10;14.80;98746.00;;;;5049935;28;20259;-45
2024/01/17 06:37:03;;;;;;;3.30;2.40;;;14.70;50.20;15.10;98737.00;;;;5067016;28;20276;-46
2024/01/17 06:39:30;;;;;;;2.80;2.50;;;14.80;50.10;15.20;98737.00;;;;5066266;28;20181;-45
2024/01/17 06:41:58;;;;;;;4.30;2.40;;;14.90;50.10;15.30;98736.00;;;;5073517;28;20174;-46
2024/01/17 06:44:23;;;;;;;4.53;2.67;;;14.90;50.70;15.30;98724.00;;;;5064288;28;20212;-44
2024/01/17 06:46:49;;;;;;;2.83;2.43;;;15.00;50.10;15.40;98719.00;;;;5066478;28;20244;-46
2024/01/17 06:49:15;;;;;;;3.00;2.60;;;15.10;50.10;15.40;98706.00;;;;5077532;28;20186;-46
2024/01/17 06:51:41;;;;;;;2.67;2.37;;;15.10;50.00;15.50;98709.00;;;;5067676;28;20256;-46
2024/01/17 06:54:06;;;;;;;3.27;2.57;;;15.10;50.00;15.50;98700.00;;;;5044156;28;21542;-46
2024/01/17 06:56:35;;;;;;;2.83;2.30;;;15.20;50.00;15.60;98695.00;;;;5066436;28;20266;-46
2024/01/17 06:59:00;;;;;;;3.60;2.33;;;15.30;50.00;15.70;98701.00;;;;5066690;28;20174;-45
2024/01/17 07:01:26;;;;;;;2.87;2.30;;;15.30;49.90;15.70;98699.00;;;;5068874;28;20173;-45
2024/01/17 07:03:52;;;;;;;2.63;2.30;;;15.30;49.90;15.80;98687.00;;;;5066512;28;20174;-44
2024/01/17 07:06:18;;;;;;;2.60;2.30;;;15.30;50.00;15.80;98681.00;;;;5064234;28;20557;-46
2024/01/17 07:08:44;;;;;;;2.57;2.33;;;15.40;50.10;15.90;98680.00;;;;5070032;28;20195;-45
2024/01/17 07:11:12;;;;;;;3.10;2.20;;;15.40;50.10;15.90;98676.00;;;;5069527;28;20531;-45
2024/01/17 07:13:38;;;;;;;3.00;2.50;;;15.40;50.30;15.90;98674.00;;;;5073232;28;20255;-45
2024/01/17 07:16:05;;;;;;;3.80;2.30;;;15.40;50.30;16.00;98657.00;;;;5069256;28;20215;-45
2024/01/17 07:18:31;;;;;;;2.50;2.30;;;15.50;50.40;16.00;98653.00;;;;5064491;28;20706;-44
2024/01/17 07:20:57;;;;;;;2.50;2.30;;;15.50;50.30;16.00;98650.00;;;;5072514;28;20261;-46
2024/01/17 07:23:22;;;;;;;2.90;2.40;;;15.50;50.30;16.00;98644.00;;;;5069759;28;20232;-45
2024/01/17 07:25:48;;;;;;;2.50;2.30;;;15.60;50.30;16.10;98640.00;;;;5069634;28;20267;-45
2024/01/17 07:28:14;;;;;;;2.40;2.20;;;15.60;50.30;16.10;98640.00;;;;5067644;28;20182;-46
2024/01/17 07:30:41;;;;;;;4.17;2.30;;;15.60;50.40;16.10;98632.00;;;;5069699;28;20185;-46
2024/01/17 07:33:07;;;;;;;2.50;2.20;;;15.60;50.50;16.20;98633.00;;;;5074258;28;20708;-45
2024/01/17 07:35:33;;;;;;;3.17;2.40;;;15.60;50.50;16.20;98630.00;;;;5069415;28;20281;-44
2024/01/17 07:37:59;;;;;;;2.47;2.27;;;15.60;50.50;16.20;98630.00;;;;5069867;28;20174;-45
2024/01/17 07:40:25;;;;;;;2.40;2.20;;;15.60;50.40;16.20;98618.00;;;;5069255;28;20860;-45
2024/01/17 07:42:51;;;;;;;3.27;2.27;;;15.70;51.10;16.20;98615.00;;;;5069581;28;20174;-46
2024/01/17 07:45:17;;;;;;;2.30;2.07;;;15.60;50.50;16.20;98618.00;;;;5070877;28;20935;-44
2024/01/17 07:47:43;;;;;;;2.40;2.20;;;15.60;50.70;16.30;98609.00;;;;5070441;28;20192;-44
2024/01/17 07:50:09;;;;;;;2.83;2.37;;;15.60;50.70;16.00;98612.00;;;;5070533;28;20256;-44
2024/01/17 07:52:35;;;;;;;2.73;2.20;;;15.70;50.70;16.30;98591.00;;;;5026081;28;20289;-45
2024/01/17 07:55:02;;;;;;;2.33;2.13;;;15.70;50.70;16.30;98570.00;;;;5068364;28;20897;-44
2024/01/17 07:57:27;;;;;;;2.50;2.30;;;15.70;50.60;16.30;98576.00;;;;5070446;28;20172;-45
2024/01/17 07:59:53;;;;;;;2.33;2.13;;;15.70;50.70;16.30;98568.00;;;;5074668;28;20169;-45
2024/01/17 08:02:19;;;;;;;4.03;2.23;;;15.70;50.70;16.30;98555.00;;;;5079142;28;20562;-45
2024/01/17 08:04:45;;;;;;;2.20;1.90;;;15.70;51.00;16.30;98562.00;;;;5048992;28;20174;-45
2024/01/17 08:07:11;;;;;;;3.17;2.40;;;15.70;51.00;16.30;98557.00;;;;5070532;28;20178;-45
2024/01/17 08:09:37;;;;;;;4.90;2.17;;;15.80;51.10;16.40;98554.00;;;;5071679;28;20199;-44
2024/01/17 08:12:03;;;;;;;2.30;2.10;;;15.80;51.20;16.40;98540.00;;;;5064445;28;20262;-45
2024/01/17 08:14:29;;;;;;;3.10;2.33;;;15.80;51.30;16.40;98526.00;;;;5023355;28;20749;-46
2024/01/17 08:16:55;;;;;;;2.60;2.10;;;15.80;51.40;16.40;98528.00;;;;5069792;28;20204;-45
2024/01/17 08:19:21;;;;;;;3.03;2.20;;;15.90;51.20;16.50;98541.00;;;;5085810;28;20166;-46
2024/01/17 08:21:47;;;;;;;2.70;2.30;;;16.00;51.20;16.50;98536.00;;;;5066443;28;20170;-46
2024/01/17 08:24:14;;;;;;;2.27;2.07;;;16.10;50.90;16.60;98526.00;;;;5072248;28;20178;-45
2024/01/17 08:26:40;;;;;;;2.47;2.27;;;16.20;50.80;16.70;98518.00;;;;5074244;28;20193;-46
2024/01/17 08:29:06;;;;;;;2.40;2.20;;;16.30;50.70;16.70;98501.00;;;;5053970;28;20169;-44
2024/01/17 08:31:31;;;;;;;2.57;2.20;;;16.30;50.60;16.80;98500.00;;;;5067511;28;20208;-45
2024/01/17 08:33:57;;;;;;;3.07;2.20;;;16.40;50.70;16.80;98505.00;;;;5073255;28;20174;-45
2024/01/17 08:36:27;;;;;;;2.37;2.00;;;16.50;50.90;16.90;98484.00;;;;5069795;28;20377;-45
2024/01/17 08:38:53;;;;;;;3.47;2.20;;;16.60;51.00;17.00;98479.00;;;;5055736;28;20235;-45
2024/01/17 08:41:19;;;;;;;2.87;2.23;;;16.60;50.90;17.00;98482.00;;;;5070384;28;20654;-46
2024/01/17 08:43:45;;;;;;;2.97;2.40;;;16.70;51.00;17.10;98493.00;;;;5071384;28;20275;-45
2024/01/17 08:46:14;;;;;;;2.90;1.93;;;16.70;50.90;17.10;98486.00;;;;5073136;28;20249;-46
2024/01/17 08:48:40;;;;;;;5.40;2.47;;;16.80;50.80;17.20;98481.00;;;;5073007;28;20545;-43
2024/01/17 08:51:07;;;;;;;2.20;2.00;;;16.90;50.80;17.30;98482.00;;;;5074475;28;20175;-46
2024/01/17 08:53:33;;;;;;;2.23;2.00;;;16.90;50.60;17.30;98471.00;;;;5068756;28;20174;-46
2024/01/17 08:56:01;;;;;;;2.17;2.00;;;17.00;50.70;17.40;98479.00;;;;5066177;28;20210;-44
2024/01/17 08:58:26;;;;;;;2.43;2.23;;;16.90;51.30;17.40;98467.00;;;;5071988;28;20190;-47
2024/01/17 09:00:52;;;;;;;3.77;2.20;;;17.00;51.10;17.40;98471.00;;;;5068385;28;20184;-46
2024/01/17 09:03:18;;;;;;;3.70;2.00;;;17.00;51.00;17.40;98463.00;;;;5076411;28;20199;-46
2024/01/17 09:05:44;;;;;;;2.53;2.27;;;17.00;50.90;17.40;98393.00;;;;5072570;28;20204;-45
2024/01/17 09:08:10;;;;;;;3.50;2.10;;;17.00;50.90;17.40;98451.00;;;;5071727;28;20262;-46
2024/01/17 09:10:35;;;;;;;8.07;2.43;;;16.90;51.30;17.40;98442.00;;;;5072021;28;20780;-47
2024/01/17 09:13:01;;;;;;;4.50;2.27;;;16.90;51.20;17.40;98453.00;;;;5070196;28;20222;-45
2024/01/17 09:15:27;;;;;;;5.67;2.60;;;16.90;51.30;17.40;98446.00;;;;5066674;28;20759;-47
2024/01/17 09:17:53;;;;;;;4.10;2.17;;;16.80;51.90;17.40;98438.00;;;;5069628;28;20199;-46
2024/01/17 09:20:18;;;;;;;8.00;2.60;;;16.70;51.80;17.40;98443.00;;;;5066957;28;20262;-45
2024/01/17 09:22:46;;;;;;;4.43;2.47;;;16.70;51.90;17.30;98435.00;;;;5067204;28;20169;-45
2024/01/17 09:25:12;;;;;;;5.70;2.47;;;16.70;52.10;17.30;98435.00;;;;5064351;28;20706;-46
2024/01/17 09:27:38;;;;;;;6.67;2.50;;;16.70;52.10;17.30;98432.00;;;;5065509;28;20179;-45
2024/01/17 09:30:04;;;;;;;6.90;2.30;;;16.70;52.30;17.30;98437.00;;;;5063977;28;20185;-45
2024/01/17 09:32:30;;;;;;;8.53;2.67;;;16.60;52.60;17.30;98436.00;;;;5038072;28;20185;-45
2024/01/17 09:34:56;;;;;;;4.43;2.40;;;16.70;52.60;17.30;98423.00;;;;5049432;28;20548;-46
2024/01/17 09:37:21;;;;;;;5.17;2.30;;;16.70;52.60;17.30;98419.00;;;;5041260;28;20176;-46
2024/01/17 09:39:47;;;;;;;5.60;2.20;;;16.60;53.10;17.30;98412.00;;;;5046369;28;20183;-46
2024/01/17 09:42:16;;;;;;;6.13;2.40;;;16.60;53.30;17.20;98413.00;;;;5064005;28;20260;-45
2024/01/17 09:44:42;;;;;;;5.10;2.20;;;16.60;53.20;17.20;98402.00;;;;5044222;28;20253;-46
2024/01/17 09:47:08;;;;;;;4.30;2.20;;;16.60;53.30;17.30;98393.00;;;;5050541;28;20765;-46
2024/01/17 09:49:35;;;;;;;5.07;2.30;;;16.60;53.20;17.30;98385.00;;;;5067638;28;20180;-46
2024/01/17 09:52:05;;;;;;;4.83;2.30;;;16.60;53.00;17.30;98390.00;;;;5042586;28;20183;-46
2024/01/17 09:54:37;;;;;;;7.27;2.30;;;16.60;53.00;17.30;98389.00;;;;5064143;28;20182;-46
2024/01/17 09:57:07;;;;;;;5.57;2.40;;;16.60;52.80;17.30;98388.00;;;;5047810;28;20783;-47
2024/01/17 09:59:33;;;;;;;4.47;2.20;;;16.60;52.80;17.30;98379.00;;;;5043557;28;20705;-44
2024/01/17 10:01:59;;;;;;;5.37;2.33;;;16.60;52.80;17.30;98383.00;;;;5043337;28;20351;-46
2024/01/17 10:04:25;;;;;;;10.03;2.40;;;16.60;52.90;17.30;98363.00;;;;5020250;28;20181;-45
2024/01/17 10:06:52;;;;;;;2.93;2.30;;;16.60;52.90;17.30;98373.00;;;;5070770;28;20205;-46
2024/01/17 10:09:22;;;;;;;3.23;2.23;;;16.60;52.80;17.30;98383.00;;;;5067400;28;20719;-46
2024/01/17 10:11:47;;;;;;;3.67;2.10;;;16.60;52.80;17.30;98367.00;;;;5039216;28;20253;-46
2024/01/17 10:14:13;;;;;;;3.87;2.33;;;16.60;52.70;17.30;98368.00;;;;5051083;28;20258;-46
2024/01/17 10:16:39;;;;;;;4.90;2.40;;;16.60;52.60;17.30;98372.00;;;;5058313;28;20210;-46
2024/01/17 10:19:06;;;;;;;2.77;2.20;;;16.60;52.50;17.30;98371.00;;;;5048291;28;20785;-46
2024/01/17 10:21:33;;;;;;;2.10;1.87;;;16.60;52.50;17.30;98364.00;;;;5067041;28;20225;-45
2024/01/17 10:23:59;;;;;;;3.93;2.20;;;16.60;52.40;17.30;98366.00;;;;5070340;28;20171;-46
2024/01/17 10:26:24;;;;;;;4.17;2.30;;;16.70;52.50;17.30;98354.00;;;;5064638;28;20548;-46
2024/01/17 10:28:51;;;;;;;3.43;2.10;;;16.60;52.40;17.40;98359.00;;;;5049267;28;20191;-46
2024/01/17 10:31:20;;;;;;;3.87;2.30;;;16.70;52.40;17.40;98347.00;;;;5071422;28;20237;-47
2024/01/17 10:33:50;;;;;;;3.73;2.20;;;16.70;52.40;17.40;98341.00;;;;5068094;28;20175;-47
2024/01/17 10:36:16;;;;;;;3.13;2.20;;;16.70;52.30;17.40;98338.00;;;;5038203;28;20237;-47
2024/01/17 10:38:42;;;;;;;5.23;2.40;;;16.70;52.30;17.40;98329.00;;;;5044411;28;20251;-46
2024/01/17 10:41:08;;;;;;;5.10;2.30;;;16.70;52.30;17.40;98324.00;;;;5040917;28;20239;-45
2024/01/17 10:43:52;;;;;;;4.70;2.30;;;16.60;52.40;17.40;98325.00;;;;5067745;28;20435;-47
2024/01/17 10:46:17;;;;;;;2.93;2.17;;;16.70;52.90;17.40;98321.00;;;;5056016;28;20212;-46
2024/01/17 10:48:43;;;;;;;3.43;2.00;;;16.70;52.70;17.40;98317.00;;;;5078275;28;20817;-45
2024/01/17 10:51:09;;;;;;;3.70;2.50;;;16.70;52.70;17.40;98315.00;;;;5070700;28;20183;-46